British Cumulus — 2IYF8 — position and weather

sailwx.info

Track history (hours):
 
Tides and Currents Weather Stations Pressure Air Temp Water Temp Dewpoint Dewpoint Depression Visibility Wind Speed Wind Dir Waves Ship Positions

British Cumulus

Last reported at 2018-Jul-17 00:00 UTC. Time now 2018-Jul-17 04:09 UTC.
Position N 38°54' E 007°24'.

Length 183 m; draft 10.3 m.

Type: Ship. MMSI: 235113757.

Wind from 310 at 18 knots

Barometer 1016.4 mb
Air temperature 25.0 ° C
Visibility: greater than 10.8 NM
Dewpoint 18.8 ° C
Water temperature 28.0 ° C

Date/timePositionNaut miles runAvg speedWind from/ knotsBaromVisibWave heightAir tempDewpointWater temp
2018-Jul-17 00:00N 38°54' E 007°24'2613.0 310 / 181016.410.8 25.018.828.0
2018-Jul-16 22:00N 39°12' E 007°00'18112.8 310 / 201016.210.8 25.018.8
2018-Jul-16 07:54N 42°02' E 005°38'512.6
2018-Jul-16 07:30N 42°06' E 005°36'1712.9
2018-Jul-16 06:13N 42°22' E 005°28'5612.7
2018-Jul-16 01:46N 43°14' E 005°00'3 8.6
2018-Jul-16 01:29N 43°17' E 004°59'4 8.6
2018-Jul-16 01:00N 43°21' E 004°58'4 8.3
2018-Jul-16 00:30N 43°24' E 004°54'1 2.8
2018-Jul-15 23:59N 43°25' E 004°53'0 0.0
2018-Jul-15 23:29N 43°25' E 004°53'0 0.0
2018-Jul-15 22:57N 43°25' E 004°53'0 0.0
2018-Jul-15 22:23N 43°25' E 004°53'0 0.0
2018-Jul-15 13:30N 43°25' E 004°53'0 0.0
2018-Jul-15 10:24N 43°25' E 004°53'0 0.0
2018-Jul-15 08:36N 43°25' E 004°53'0 0.0
2018-Jul-15 08:30N 43°25' E 004°53'0 0.0
2018-Jul-15 07:48N 43°25' E 004°53'0 0.0
2018-Jul-15 07:24N 43°25' E 004°53'0 0.0
2018-Jul-15 07:00N 43°25' E 004°53'0 0.0
2018-Jul-15 06:30N 43°25' E 004°53'0 0.0
2018-Jul-15 06:00N 43°25' E 004°53'0 0.0
2018-Jul-15 05:15N 43°25' E 004°53'0 0.0
2018-Jul-15 05:00N 43°25' E 004°53'0 0.0
2018-Jul-15 04:30N 43°25' E 004°53'0 0.0
2018-Jul-15 03:57N 43°25' E 004°53'0 0.0
2018-Jul-15 03:24N 43°25' E 004°53'0 0.0
2018-Jul-15 02:48N 43°25' E 004°53'0 0.0
2018-Jul-15 02:30N 43°25' E 004°53'0 0.0
2018-Jul-15 02:00N 43°25' E 004°53'0 0.0
2018-Jul-15 01:27N 43°25' E 004°53'0 0.0
2018-Jul-15 00:57N 43°25' E 004°53'0 0.0
2018-Jul-15 00:30N 43°25' E 004°53'0 0.0
2018-Jul-14 23:57N 43°25' E 004°53'0 0.0
2018-Jul-14 23:30N 43°25' E 004°53'0 0.0
2018-Jul-14 22:51N 43°25' E 004°53'0 0.0
2018-Jul-14 22:30N 43°25' E 004°53'0 0.0
2018-Jul-14 21:54N 43°25' E 004°53'0 0.0
2018-Jul-14 21:21N 43°25' E 004°53'0 0.0
2018-Jul-14 20:57N 43°25' E 004°53'0 0.0
2018-Jul-14 20:30N 43°25' E 004°53'0 0.0
2018-Jul-14 19:57N 43°25' E 004°53'0 0.0
2018-Jul-14 19:03N 43°25' E 004°53'0 0.0
2018-Jul-14 18:48N 43°25' E 004°53'0 0.0
2018-Jul-14 18:24N 43°25' E 004°53'0 0.0
2018-Jul-14 11:39N 43°25' E 004°53'0 0.1
2018-Jul-14 11:30N 43°25' E 004°53'1 1.8
2018-Jul-14 11:00N 43°24' E 004°53'2 4.5
2018-Jul-14 10:30N 43°24' E 004°57'0 0.0
2018-Jul-14 10:00N 43°24' E 004°57'0 0.0
2018-Jul-14 09:30N 43°24' E 004°57'0 0.1
2018-Jul-14 08:54N 43°24' E 004°57'0 0.0
2018-Jul-14 08:30N 43°24' E 004°57'0 0.0
2018-Jul-14 08:00N 43°24' E 004°56'0 0.0
2018-Jul-14 07:30N 43°24' E 004°56'0 0.1
2018-Jul-14 07:00N 43°24' E 004°56'0 0.0
2018-Jul-14 06:26N 43°24' E 004°56'0 0.1
2018-Jul-14 06:00N 43°24' E 004°56'0 0.1
2018-Jul-14 05:30N 43°24' E 004°56'0 0.1
2018-Jul-14 04:56N 43°24' E 004°56'0 0.1
2018-Jul-14 04:30N 43°24' E 004°56'0 0.0
2018-Jul-14 04:00N 43°24' E 004°56'0 0.1
2018-Jul-14 03:30N 43°24' E 004°57'0 0.0
2018-Jul-14 03:00N 43°24' E 004°57'0 0.0
2018-Jul-14 02:30N 43°24' E 004°56'0 0.0
2018-Jul-14 02:00N 43°24' E 004°57'0 0.1
2018-Jul-14 01:30N 43°24' E 004°56'0 0.0
2018-Jul-14 01:00N 43°24' E 004°56'0 0.0
2018-Jul-14 00:30N 43°24' E 004°56'0 0.0
2018-Jul-14 00:00N 43°24' E 004°56'0 0.0
2018-Jul-13 23:30N 43°24' E 004°56'0 0.1
2018-Jul-13 23:00N 43°24' E 004°56'0 0.1
2018-Jul-13 22:30N 43°24' E 004°56'0 0.0
2018-Jul-13 22:00N 43°24' E 004°56'0 0.0
2018-Jul-13 21:30N 43°24' E 004°56'0 0.0
2018-Jul-13 21:00N 43°24' E 004°56'0 0.0
2018-Jul-13 20:27N 43°24' E 004°56'0 0.0
2018-Jul-13 20:00N 43°24' E 004°56'0 0.1
2018-Jul-13 19:30N 43°24' E 004°56'0 0.0
2018-Jul-13 19:00N 43°24' E 004°57'0 0.0
2018-Jul-13 18:30N 43°24' E 004°57'0 0.0
2018-Jul-13 17:58N 43°24' E 004°56'0 0.0
2018-Jul-13 17:30N 43°24' E 004°56'0 0.1
2018-Jul-13 17:00N 43°24' E 004°57'0 0.1
2018-Jul-13 16:30N 43°24' E 004°57'0 0.1
2018-Jul-13 15:58N 43°24' E 004°57'0 0.0
2018-Jul-13 15:30N 43°24' E 004°57'0 0.0
2018-Jul-13 14:52N 43°24' E 004°57'0 0.0
2018-Jul-13 14:30N 43°24' E 004°57'0 0.0
2018-Jul-13 12:42N 43°24' E 004°57'0 0.1
2018-Jul-13 12:28N 43°24' E 004°57'0 0.0
2018-Jul-13 12:00N 43°24' E 004°57'0 0.2
2018-Jul-13 11:30N 43°24' E 004°57'0 0.1
2018-Jul-13 10:54N 43°24' E 004°57'0 0.0
2018-Jul-13 10:28N 43°24' E 004°57'0 0.1
2018-Jul-13 10:00N 43°24' E 004°57'0 0.0
2018-Jul-13 09:30N 43°24' E 004°57'0 0.1
2018-Jul-13 09:00N 43°24' E 004°57'0 0.1
2018-Jul-13 08:30N 43°24' E 004°57'0 0.1
2018-Jul-13 08:00N 43°24' E 004°57'0 0.0
2018-Jul-13 07:28N 43°24' E 004°57'0 0.0
2018-Jul-13 07:00N 43°24' E 004°57'0 0.1
2018-Jul-13 06:28N 43°24' E 004°56'0 0.0
2018-Jul-13 06:00N 43°24' E 004°56'0 0.0
2018-Jul-13 05:30N 43°24' E 004°56'0 0.0
2018-Jul-13 04:58N 43°24' E 004°57'0 0.0
2018-Jul-13 04:28N 43°24' E 004°57'0 0.0
2018-Jul-13 03:58N 43°24' E 004°56'0 0.0
2018-Jul-13 03:28N 43°24' E 004°56'0 0.0
2018-Jul-13 02:58N 43°24' E 004°56'0 0.0
2018-Jul-13 02:28N 43°24' E 004°56'0 0.0
2018-Jul-13 01:52N 43°24' E 004°56'0 0.0
2018-Jul-13 01:28N 43°24' E 004°56'0 0.0
2018-Jul-13 00:49N 43°24' E 004°56'0 0.0
2018-Jul-13 00:25N 43°24' E 004°56'0 0.0
2018-Jul-12 23:55N 43°24' E 004°56'0 0.0
2018-Jul-12 23:28N 43°24' E 004°56'0 0.0
2018-Jul-12 22:58N 43°24' E 004°57'0 0.0
2018-Jul-12 22:28N 43°24' E 004°57'0 0.1
2018-Jul-12 21:58N 43°24' E 004°57'0 0.0
2018-Jul-12 21:28N 43°24' E 004°57'0 0.1
2018-Jul-12 20:58N 43°24' E 004°57'0 0.0
2018-Jul-12 20:22N 43°24' E 004°57'0 0.0
2018-Jul-12 19:58N 43°24' E 004°57'0 0.2
2018-Jul-12 19:28N 43°24' E 004°57'0 0.0
2018-Jul-12 18:58N 43°24' E 004°57'0 0.1
2018-Jul-12 18:28N 43°24' E 004°57'0 0.0
2018-Jul-12 17:58N 43°24' E 004°57'0 0.0
2018-Jul-12 17:28N 43°24' E 004°57'0 0.0
2018-Jul-12 16:58N 43°24' E 004°57'0 0.0
2018-Jul-12 16:28N 43°24' E 004°57'0 0.1
2018-Jul-12 15:52N 43°24' E 004°57'0 0.1
2018-Jul-12 15:25N 43°24' E 004°57'0 0.4
2018-Jul-12 14:58N 43°24' E 004°57'0 0.1
2018-Jul-12 14:28N 43°24' E 004°57'0 0.1
2018-Jul-12 13:58N 43°24' E 004°57'0 0.1
2018-Jul-12 13:28N 43°24' E 004°57'0 0.1
2018-Jul-12 12:55N 43°24' E 004°57'0 0.0
2018-Jul-12 12:28N 43°24' E 004°57'0 0.1
2018-Jul-12 11:55N 43°24' E 004°57'0 0.1
2018-Jul-12 11:28N 43°24' E 004°57'0 0.1
2018-Jul-12 10:58N 43°24' E 004°57'0 0.1
2018-Jul-12 10:28N 43°24' E 004°57'0 0.1
2018-Jul-12 09:58N 43°24' E 004°56'0 0.0
2018-Jul-12 09:28N 43°24' E 004°56'0 0.1
2018-Jul-12 08:58N 43°24' E 004°56'0 0.0
2018-Jul-12 08:28N 43°24' E 004°56'0 0.0
2018-Jul-12 07:58N 43°24' E 004°56'0 0.1
2018-Jul-12 07:28N 43°24' E 004°56'0 0.0
2018-Jul-12 06:58N 43°24' E 004°56'0 0.0
2018-Jul-12 06:26N 43°24' E 004°56'0 0.0
2018-Jul-12 05:58N 43°24' E 004°56'0 0.0
2018-Jul-12 05:28N 43°24' E 004°56'2 3.9
2018-Jul-12 05:00N 43°24' E 004°54'258.8 340 / 51015.210.8 19.211.620.3
2018-Jul-12 04:58N 43°24' E 004°56'0 0.0
2018-Jul-12 04:28N 43°24' E 004°56'0 0.0
2018-Jul-12 03:58N 43°24' E 004°56'0 0.1
2018-Jul-12 03:29N 43°24' E 004°57'0 0.0
2018-Jul-12 02:56N 43°24' E 004°57'0 0.0
2018-Jul-12 02:29N 43°24' E 004°57'0 0.1
2018-Jul-12 01:56N 43°24' E 004°57'0 0.0
2018-Jul-12 01:29N 43°24' E 004°57'0 0.0
2018-Jul-12 00:59N 43°24' E 004°57'0 0.0
2018-Jul-12 00:29N 43°24' E 004°57'0 0.0
2018-Jul-11 23:59N 43°24' E 004°57'0 0.0
2018-Jul-11 23:26N 43°24' E 004°57'0 0.0
2018-Jul-11 22:59N 43°24' E 004°57'0 0.0
2018-Jul-11 22:29N 43°24' E 004°57'0 0.0
2018-Jul-11 21:59N 43°24' E 004°57'0 0.0
2018-Jul-11 21:29N 43°24' E 004°57'0 0.0
2018-Jul-11 20:59N 43°24' E 004°57'0 0.0
2018-Jul-11 20:29N 43°24' E 004°57'0 0.0
2018-Jul-11 19:59N 43°24' E 004°57'0 0.0
2018-Jul-11 19:29N 43°24' E 004°57'0 0.0
2018-Jul-11 18:59N 43°24' E 004°57'0 0.0
2018-Jul-11 18:29N 43°24' E 004°57'0 0.0
2018-Jul-11 17:59N 43°24' E 004°57'0 0.0
2018-Jul-11 17:20N 43°24' E 004°57'0 0.2
2018-Jul-11 16:59N 43°24' E 004°57'0 0.0
2018-Jul-11 16:29N 43°24' E 004°57'0 0.1
2018-Jul-11 15:59N 43°24' E 004°57'0 0.1
2018-Jul-11 15:29N 43°24' E 004°57'0 0.0
2018-Jul-11 14:53N 43°24' E 004°57'0 0.1
2018-Jul-11 14:29N 43°24' E 004°57'0 0.0
2018-Jul-11 13:59N 43°24' E 004°57'0 0.0
2018-Jul-11 13:26N 43°24' E 004°57'0 0.1
2018-Jul-11 13:00N 43°24' E 004°57'0 0.0
2018-Jul-11 12:24N 43°24' E 004°57'0 0.0
2018-Jul-11 12:00N 43°24' E 004°57'0 0.0
2018-Jul-11 11:30N 43°24' E 004°57'0 0.1
2018-Jul-11 11:00N 43°24' E 004°57'0 0.0
2018-Jul-11 10:30N 43°24' E 004°57'0 0.0
2018-Jul-11 10:00N 43°24' E 004°57'2708.2
2018-Jul-11 10:00N 43°24' E 004°54'2 4.0 350 / 271012.1 5.4 24.520.720.4
2018-Jul-11 09:30N 43°24' E 004°57'0 0.0
2018-Jul-11 09:00N 43°24' E 004°57'0 0.0
2018-Jul-11 08:30N 43°24' E 004°57'0 0.0
2018-Jul-11 08:00N 43°24' E 004°57'0 0.0
2018-Jul-11 07:30N 43°24' E 004°57'0 0.0
2018-Jul-11 07:00N 43°24' E 004°57'0 0.0
2018-Jul-11 06:30N 43°24' E 004°57'0 0.0
2018-Jul-11 06:00N 43°24' E 004°57'0 0.0
2018-Jul-11 05:30N 43°24' E 004°57'0 0.0
2018-Jul-11 05:00N 43°24' E 004°57'0 0.0
2018-Jul-11 04:30N 43°24' E 004°57'0 0.0
2018-Jul-11 04:00N 43°24' E 004°57'0 0.0
2018-Jul-11 03:30N 43°24' E 004°57'0 0.0
2018-Jul-11 03:00N 43°24' E 004°57'0 0.0
2018-Jul-11 02:30N 43°24' E 004°57'0 0.1
2018-Jul-11 02:00N 43°24' E 004°57'0 0.0
2018-Jul-11 01:30N 43°24' E 004°57'0 0.0
2018-Jul-11 01:00N 43°24' E 004°57'0 0.0
2018-Jul-11 00:30N 43°24' E 004°57'0 0.0
2018-Jul-11 00:00N 43°24' E 004°57'0 0.0
2018-Jul-10 23:30N 43°24' E 004°57'0 0.0
2018-Jul-10 23:00N 43°24' E 004°57'0 0.0
2018-Jul-10 22:30N 43°24' E 004°57'2 3.8
2018-Jul-10 22:00N 43°24' E 004°54'239.8 360 / 181011.9 5.4 26.510.620.3
2018-Jul-10 21:57N 43°24' E 004°57'0 0.0
2018-Jul-10 21:30N 43°24' E 004°57'0 0.0
2018-Jul-10 21:00N 43°24' E 004°57'0 0.0
2018-Jul-10 20:24N 43°24' E 004°57'0 0.0
2018-Jul-10 20:00N 43°24' E 004°57'0 0.0
2018-Jul-10 19:30N 43°24' E 004°57'0 0.0
2018-Jul-10 18:54N 43°24' E 004°57'0 0.0
2018-Jul-10 18:30N 43°24' E 004°57'0 0.1
2018-Jul-10 18:00N 43°24' E 004°57'62410.1
2018-Jul-10 18:00N 43°18' E 004°54'612.2 310 / 111012.7 5.4 29.016.225.0
2018-Jul-10 17:30N 43°24' E 004°57'0 0.0
2018-Jul-10 17:00N 43°24' E 004°57'0 0.0
2018-Jul-10 16:30N 43°24' E 004°57'0 0.0
2018-Jul-10 16:00N 43°24' E 004°57'0 0.0
2018-Jul-10 15:30N 43°24' E 004°57'0 0.0
2018-Jul-10 15:00N 43°24' E 004°57'0 0.0
2018-Jul-10 14:30N 43°24' E 004°57'0 0.2
2018-Jul-10 14:00N 43°24' E 004°57'0 0.1
2018-Jul-10 13:30N 43°24' E 004°57'0 0.1
2018-Jul-10 12:57N 43°24' E 004°57'0 0.0
2018-Jul-10 12:30N 43°24' E 004°57'0 0.0
2018-Jul-10 12:00N 43°24' E 004°57'0 0.0
2018-Jul-10 11:30N 43°24' E 004°57'0 0.0
2018-Jul-10 10:58N 43°24' E 004°57'0 0.0
2018-Jul-10 10:30N 43°24' E 004°57'0 0.0
2018-Jul-10 10:00N 43°24' E 004°57'0 0.1
2018-Jul-10 09:29N 43°24' E 004°57'0 0.4
2018-Jul-10 09:00N 43°24' E 004°57'0 0.2
2018-Jul-10 08:30N 43°24' E 004°57'0 0.0
2018-Jul-10 08:00N 43°24' E 004°57'0 0.0
2018-Jul-10 07:26N 43°24' E 004°57'0 0.0
2018-Jul-10 07:00N 43°24' E 004°57'0 0.0
2018-Jul-10 06:26N 43°24' E 004°57'0 0.0
2018-Jul-10 06:00N 43°24' E 004°57'0 0.0
2018-Jul-10 05:30N 43°24' E 004°57'0 0.1
2018-Jul-10 05:00N 43°24' E 004°57'0 0.0
2018-Jul-10 04:30N 43°24' E 004°57'0 0.0
2018-Jul-10 04:00N 43°24' E 004°57'0 0.0
2018-Jul-10 03:26N 43°24' E 004°57'0 0.0
2018-Jul-10 03:00N 43°24' E 004°57'0 0.0
2018-Jul-10 02:30N 43°24' E 004°57'0 0.0
2018-Jul-10 02:00N 43°24' E 004°57'0 0.0
2018-Jul-10 01:30N 43°24' E 004°57'0 0.0
2018-Jul-10 01:00N 43°24' E 004°57'0 0.0
2018-Jul-10 00:30N 43°24' E 004°57'0 0.0
2018-Jul-10 00:00N 43°24' E 004°57'0 0.0
2018-Jul-09 23:30N 43°24' E 004°57'0 0.1
2018-Jul-09 23:00N 43°24' E 004°57'0 0.0
2018-Jul-09 22:30N 43°24' E 004°57'0 0.0
2018-Jul-09 22:00N 43°24' E 004°57'0 0.0
2018-Jul-09 21:26N 43°24' E 004°57'0 0.0
2018-Jul-09 21:00N 43°24' E 004°57'0 0.0
2018-Jul-09 20:30N 43°24' E 004°57'0 0.0
2018-Jul-09 20:00N 43°24' E 004°57'0 0.1
2018-Jul-09 19:30N 43°24' E 004°57'0 0.0
2018-Jul-09 19:00N 43°24' E 004°57'0 0.0
2018-Jul-09 18:30N 43°24' E 004°57'0 0.0
2018-Jul-09 18:00N 43°24' E 004°57'0 0.0
2018-Jul-09 17:29N 43°24' E 004°57'1 1.7
2018-Jul-09 17:00N 43°23' E 004°57'4 7.1
2018-Jul-09 16:30N 43°20' E 004°59'5 9.7
2018-Jul-09 16:00N 43°15' E 005°01'4 8.6
2018-Jul-09 15:30N 43°11' E 005°03'4412.7
2018-Jul-09 12:03N 42°33' E 004°32'2113.9
2018-Jul-09 10:34N 42°16' E 004°17'113.6
2018-Jul-09 10:29N 42°15' E 004°16'2039.1
2018-Jul-09 10:00N 42°00' E 004°00'5211.7 360 / 251016.910.8 24.017.624.3
2018-Jul-09 05:36N 41°17' E 003°23'114.9
2018-Jul-09 05:30N 41°16' E 003°22'814.6
2018-Jul-09 04:59N 41°09' E 003°16'1014.5
2018-Jul-09 04:18N 41°01' E 003°09'723.6
2018-Jul-09 04:00N 40°54' E 003°06'311.2 310 / 111018.610.8 25.621.726.0
2018-Jul-09 03:46N 40°55' E 003°03'414.7
2018-Jul-09 03:30N 40°51' E 002°60'814.6
2018-Jul-09 02:55N 40°44' E 002°54'614.6
2018-Jul-09 02:30N 40°39' E 002°49'1514.8
2018-Jul-09 01:31N 40°29' E 002°36'115.0
2018-Jul-09 01:26N 40°28' E 002°35'1015.1
2018-Jul-09 00:48N 40°21' E 002°26'2815.2
2018-Jul-08 22:56N 39°60' E 002°02'1015.0
2018-Jul-08 22:16N 39°52' E 001°52'37138.5
2018-Jul-08 22:00N 39°42' E 001°06'31166.2 350 / 71017.910.8 25.522.628.6
2018-Jul-08 21:48N 39°47' E 001°46'415.1
2018-Jul-08 21:30N 39°44' E 001°42'815.0
2018-Jul-08 21:00N 39°39' E 001°35'1015.0
2018-Jul-08 20:20N 39°31' E 001°27'6115.2
2018-Jul-08 16:21N 38°47' E 000°34'615.1
2018-Jul-08 15:57N 38°42' E 000°28'715.1
2018-Jul-08 15:30N 38°37' E 000°24'714.8
2018-Jul-08 15:00N 38°31' E 000°18'714.6
2018-Jul-08 14:30N 38°25' E 000°13'714.4
2018-Jul-08 14:00N 38°19' E 000°08'1414.5
2018-Jul-08 13:01N 38°07' W 000°02'114.3
2018-Jul-08 12:59N 38°06' W 000°03'714.4
2018-Jul-08 12:30N 38°01' W 000°08'1914.3
2018-Jul-08 11:11N 37°45' W 000°21'314.3
2018-Jul-08 10:59N 37°43' W 000°23'714.2
2018-Jul-08 10:29N 37°36' W 000°27'714.0
2018-Jul-08 10:00N 37°31' W 000°33'714.0
2018-Jul-08 09:29N 37°26' W 000°40'713.9
2018-Jul-08 09:00N 37°21' W 000°45'713.9
2018-Jul-08 08:30N 37°16' W 000°51'813.9
2018-Jul-08 07:58N 37°10' W 000°57'813.9
2018-Jul-08 07:23N 37°04' W 001°04'514.0
2018-Jul-08 07:00N 37°00' W 001°08'13313.2
2018-Jul-07 21:00N 36°12' W 003°42'6716.7 360 / 101016.810.8 21.520.015.2
2018-Jul-07 17:01N 36°06' W 005°04'214.6
2018-Jul-07 16:55N 36°06' W 005°06'613.8
2018-Jul-07 16:30N 36°05' W 005°13'5 9.3
2018-Jul-07 16:00N 36°04' W 005°19'4 7.0
2018-Jul-07 15:30N 36°06' W 005°22'1 1.3
2018-Jul-07 14:58N 36°07' W 005°22'0 0.0
2018-Jul-07 14:25N 36°07' W 005°22'0 0.0
2018-Jul-07 13:59N 36°07' W 005°22'0 0.0
2018-Jul-07 13:25N 36°07' W 005°22'0 0.0
2018-Jul-07 12:59N 36°07' W 005°22'0 0.0
2018-Jul-07 12:22N 36°07' W 005°22'0 0.0
2018-Jul-07 11:58N 36°07' W 005°22'0 0.1
2018-Jul-07 11:28N 36°07' W 005°22'0 0.0
2018-Jul-07 10:55N 36°07' W 005°22'0 0.0
2018-Jul-07 10:28N 36°07' W 005°22'0 0.1
2018-Jul-07 09:58N 36°07' W 005°22'0 0.1
2018-Jul-07 09:25N 36°07' W 005°22'0 0.2
2018-Jul-07 08:59N 36°07' W 005°22'0 0.1
2018-Jul-07 08:30N 36°07' W 005°22'2 3.0
2018-Jul-07 07:59N 36°05' W 005°21'1 3.1
2018-Jul-07 07:30N 36°05' W 005°19'2 3.9
2018-Jul-07 06:59N 36°05' W 005°17'1 2.7
2018-Jul-07 06:30N 36°05' W 005°15'3 6.4
2018-Jul-07 06:00N 36°07' W 005°12'2 4.3
2018-Jul-07 05:30N 36°08' W 005°10'0 0.4
2018-Jul-07 04:56N 36°08' W 005°10'0 0.6
2018-Jul-07 04:30N 36°08' W 005°10'1 1.1
2018-Jul-07 04:00N 36°07' W 005°09'0 0.9
2018-Jul-07 03:30N 36°07' W 005°09'0 0.4
2018-Jul-07 03:00N 36°07' W 005°09'1 1.6
2018-Jul-07 02:30N 36°06' W 005°09'5 9.1
2018-Jul-07 02:00N 36°02' W 005°12'713.2
2018-Jul-07 01:31N 35°60' W 005°20'714.7
2018-Jul-07 01:01N 35°58' W 005°28'  
Track history (hours):
 
Tides and Currents Weather Stations Pressure Air Temp Water Temp Dewpoint Dewpoint Depression Visibility Wind Speed Wind Dir Waves Ship Positions

British Cumulus

Last reported at 2018-Jul-17 00:00 UTC. Time now 2018-Jul-17 04:09 UTC.
Position N 38°54' E 007°24'.

Length 183 m; draft 10.3 m.

Type: Ship. MMSI: 235113757.

Wind from 310 at 18 knots

Barometer 1016.4 mb
Air temperature 25.0 ° C
Visibility: greater than 10.8 NM
Dewpoint 18.8 ° C
Water temperature 28.0 ° C

Date/timePositionNaut miles runAvg speedWind from/ knotsBaromVisibWave heightAir tempDewpointWater temp
2018-Jul-17 00:00N 38°54' E 007°24'2613.0 310 / 181016.410.8 25.018.828.0
2018-Jul-16 22:00N 39°12' E 007°00'18112.8 310 / 201016.210.8 25.018.8
2018-Jul-16 07:54N 42°02' E 005°38'512.6
2018-Jul-16 07:30N 42°06' E 005°36'1712.9
2018-Jul-16 06:13N 42°22' E 005°28'5612.7
2018-Jul-16 01:46N 43°14' E 005°00'3 8.6
2018-Jul-16 01:29N 43°17' E 004°59'4 8.6
2018-Jul-16 01:00N 43°21' E 004°58'4 8.3
2018-Jul-16 00:30N 43°24' E 004°54'1 2.8
2018-Jul-15 23:59N 43°25' E 004°53'0 0.0
2018-Jul-15 23:29N 43°25' E 004°53'0 0.0
2018-Jul-15 22:57N 43°25' E 004°53'0 0.0
2018-Jul-15 22:23N 43°25' E 004°53'0 0.0
2018-Jul-15 13:30N 43°25' E 004°53'0 0.0
2018-Jul-15 10:24N 43°25' E 004°53'0 0.0
2018-Jul-15 08:36N 43°25' E 004°53'0 0.0
2018-Jul-15 08:30N 43°25' E 004°53'0 0.0
2018-Jul-15 07:48N 43°25' E 004°53'0 0.0
2018-Jul-15 07:24N 43°25' E 004°53'0 0.0
2018-Jul-15 07:00N 43°25' E 004°53'0 0.0
2018-Jul-15 06:30N 43°25' E 004°53'0 0.0
2018-Jul-15 06:00N 43°25' E 004°53'0 0.0
2018-Jul-15 05:15N 43°25' E 004°53'0 0.0
2018-Jul-15 05:00N 43°25' E 004°53'0 0.0
2018-Jul-15 04:30N 43°25' E 004°53'0 0.0
2018-Jul-15 03:57N 43°25' E 004°53'0 0.0
2018-Jul-15 03:24N 43°25' E 004°53'0 0.0
2018-Jul-15 02:48N 43°25' E 004°53'0 0.0
2018-Jul-15 02:30N 43°25' E 004°53'0 0.0
2018-Jul-15 02:00N 43°25' E 004°53'0 0.0
2018-Jul-15 01:27N 43°25' E 004°53'0 0.0
2018-Jul-15 00:57N 43°25' E 004°53'0 0.0
2018-Jul-15 00:30N 43°25' E 004°53'0 0.0
2018-Jul-14 23:57N 43°25' E 004°53'0 0.0
2018-Jul-14 23:30N 43°25' E 004°53'0 0.0
2018-Jul-14 22:51N 43°25' E 004°53'0 0.0
2018-Jul-14 22:30N 43°25' E 004°53'0 0.0
2018-Jul-14 21:54N 43°25' E 004°53'0 0.0
2018-Jul-14 21:21N 43°25' E 004°53'0 0.0
2018-Jul-14 20:57N 43°25' E 004°53'0 0.0
2018-Jul-14 20:30N 43°25' E 004°53'0 0.0
2018-Jul-14 19:57N 43°25' E 004°53'0 0.0
2018-Jul-14 19:03N 43°25' E 004°53'0 0.0
2018-Jul-14 18:48N 43°25' E 004°53'0 0.0
2018-Jul-14 18:24N 43°25' E 004°53'0 0.0
2018-Jul-14 11:39N 43°25' E 004°53'0 0.1
2018-Jul-14 11:30N 43°25' E 004°53'1 1.8
2018-Jul-14 11:00N 43°24' E 004°53'2 4.5
2018-Jul-14 10:30N 43°24' E 004°57'0 0.0
2018-Jul-14 10:00N 43°24' E 004°57'0 0.0
2018-Jul-14 09:30N 43°24' E 004°57'0 0.1
2018-Jul-14 08:54N 43°24' E 004°57'0 0.0
2018-Jul-14 08:30N 43°24' E 004°57'0 0.0
2018-Jul-14 08:00N 43°24' E 004°56'0 0.0
2018-Jul-14 07:30N 43°24' E 004°56'0 0.1
2018-Jul-14 07:00N 43°24' E 004°56'0 0.0
2018-Jul-14 06:26N 43°24' E 004°56'0 0.1
2018-Jul-14 06:00N 43°24' E 004°56'0 0.1
2018-Jul-14 05:30N 43°24' E 004°56'0 0.1
2018-Jul-14 04:56N 43°24' E 004°56'0 0.1
2018-Jul-14 04:30N 43°24' E 004°56'0 0.0
2018-Jul-14 04:00N 43°24' E 004°56'0 0.1
2018-Jul-14 03:30N 43°24' E 004°57'0 0.0
2018-Jul-14 03:00N 43°24' E 004°57'0 0.0
2018-Jul-14 02:30N 43°24' E 004°56'0 0.0
2018-Jul-14 02:00N 43°24' E 004°57'0 0.1
2018-Jul-14 01:30N 43°24' E 004°56'0 0.0
2018-Jul-14 01:00N 43°24' E 004°56'0 0.0
2018-Jul-14 00:30N 43°24' E 004°56'0 0.0
2018-Jul-14 00:00N 43°24' E 004°56'0 0.0
2018-Jul-13 23:30N 43°24' E 004°56'0 0.1
2018-Jul-13 23:00N 43°24' E 004°56'0 0.1
2018-Jul-13 22:30N 43°24' E 004°56'0 0.0
2018-Jul-13 22:00N 43°24' E 004°56'0 0.0
2018-Jul-13 21:30N 43°24' E 004°56'0 0.0
2018-Jul-13 21:00N 43°24' E 004°56'0 0.0
2018-Jul-13 20:27N 43°24' E 004°56'0 0.0
2018-Jul-13 20:00N 43°24' E 004°56'0 0.1
2018-Jul-13 19:30N 43°24' E 004°56'0 0.0
2018-Jul-13 19:00N 43°24' E 004°57'0 0.0
2018-Jul-13 18:30N 43°24' E 004°57'0 0.0
2018-Jul-13 17:58N 43°24' E 004°56'0 0.0
2018-Jul-13 17:30N 43°24' E 004°56'0 0.1
2018-Jul-13 17:00N 43°24' E 004°57'0 0.1
2018-Jul-13 16:30N 43°24' E 004°57'0 0.1
2018-Jul-13 15:58N 43°24' E 004°57'0 0.0
2018-Jul-13 15:30N 43°24' E 004°57'0 0.0
2018-Jul-13 14:52N 43°24' E 004°57'0 0.0
2018-Jul-13 14:30N 43°24' E 004°57'0 0.0
2018-Jul-13 12:42N 43°24' E 004°57'0 0.1
2018-Jul-13 12:28N 43°24' E 004°57'0 0.0
2018-Jul-13 12:00N 43°24' E 004°57'0 0.2
2018-Jul-13 11:30N 43°24' E 004°57'0 0.1
2018-Jul-13 10:54N 43°24' E 004°57'0 0.0
2018-Jul-13 10:28N 43°24' E 004°57'0 0.1
2018-Jul-13 10:00N 43°24' E 004°57'0 0.0
2018-Jul-13 09:30N 43°24' E 004°57'0 0.1
2018-Jul-13 09:00N 43°24' E 004°57'0 0.1
2018-Jul-13 08:30N 43°24' E 004°57'0 0.1
2018-Jul-13 08:00N 43°24' E 004°57'0 0.0
2018-Jul-13 07:28N 43°24' E 004°57'0 0.0
2018-Jul-13 07:00N 43°24' E 004°57'0 0.1
2018-Jul-13 06:28N 43°24' E 004°56'0 0.0
2018-Jul-13 06:00N 43°24' E 004°56'0 0.0
2018-Jul-13 05:30N 43°24' E 004°56'0 0.0
2018-Jul-13 04:58N 43°24' E 004°57'0 0.0
2018-Jul-13 04:28N 43°24' E 004°57'0 0.0
2018-Jul-13 03:58N 43°24' E 004°56'0 0.0
2018-Jul-13 03:28N 43°24' E 004°56'0 0.0
2018-Jul-13 02:58N 43°24' E 004°56'0 0.0
2018-Jul-13 02:28N 43°24' E 004°56'0 0.0
2018-Jul-13 01:52N 43°24' E 004°56'0 0.0
2018-Jul-13 01:28N 43°24' E 004°56'0 0.0
2018-Jul-13 00:49N 43°24' E 004°56'0 0.0
2018-Jul-13 00:25N 43°24' E 004°56'0 0.0
2018-Jul-12 23:55N 43°24' E 004°56'0 0.0
2018-Jul-12 23:28N 43°24' E 004°56'0 0.0
2018-Jul-12 22:58N 43°24' E 004°57'0 0.0
2018-Jul-12 22:28N 43°24' E 004°57'0 0.1
2018-Jul-12 21:58N 43°24' E 004°57'0 0.0
2018-Jul-12 21:28N 43°24' E 004°57'0 0.1
2018-Jul-12 20:58N 43°24' E 004°57'0 0.0
2018-Jul-12 20:22N 43°24' E 004°57'0 0.0
2018-Jul-12 19:58N 43°24' E 004°57'0 0.2
2018-Jul-12 19:28N 43°24' E 004°57'0 0.0
2018-Jul-12 18:58N 43°24' E 004°57'0 0.1
2018-Jul-12 18:28N 43°24' E 004°57'0 0.0
2018-Jul-12 17:58N 43°24' E 004°57'0 0.0
2018-Jul-12 17:28N 43°24' E 004°57'0 0.0
2018-Jul-12 16:58N 43°24' E 004°57'0 0.0
2018-Jul-12 16:28N 43°24' E 004°57'0 0.1
2018-Jul-12 15:52N 43°24' E 004°57'0 0.1
2018-Jul-12 15:25N 43°24' E 004°57'0 0.4
2018-Jul-12 14:58N 43°24' E 004°57'0 0.1
2018-Jul-12 14:28N 43°24' E 004°57'0 0.1
2018-Jul-12 13:58N 43°24' E 004°57'0 0.1
2018-Jul-12 13:28N 43°24' E 004°57'0 0.1
2018-Jul-12 12:55N 43°24' E 004°57'0 0.0
2018-Jul-12 12:28N 43°24' E 004°57'0 0.1
2018-Jul-12 11:55N 43°24' E 004°57'0 0.1
2018-Jul-12 11:28N 43°24' E 004°57'0 0.1
2018-Jul-12 10:58N 43°24' E 004°57'0 0.1
2018-Jul-12 10:28N 43°24' E 004°57'0 0.1
2018-Jul-12 09:58N 43°24' E 004°56'0 0.0
2018-Jul-12 09:28N 43°24' E 004°56'0 0.1
2018-Jul-12 08:58N 43°24' E 004°56'0 0.0
2018-Jul-12 08:28N 43°24' E 004°56'0 0.0
2018-Jul-12 07:58N 43°24' E 004°56'0 0.1
2018-Jul-12 07:28N 43°24' E 004°56'0 0.0
2018-Jul-12 06:58N 43°24' E 004°56'0 0.0
2018-Jul-12 06:26N 43°24' E 004°56'0 0.0
2018-Jul-12 05:58N 43°24' E 004°56'0 0.0
2018-Jul-12 05:28N 43°24' E 004°56'2 3.9
2018-Jul-12 05:00N 43°24' E 004°54'258.8 340 / 51015.210.8 19.211.620.3
2018-Jul-12 04:58N 43°24' E 004°56'0 0.0
2018-Jul-12 04:28N 43°24' E 004°56'0 0.0
2018-Jul-12 03:58N 43°24' E 004°56'0 0.1
2018-Jul-12 03:29N 43°24' E 004°57'0 0.0
2018-Jul-12 02:56N 43°24' E 004°57'0 0.0
2018-Jul-12 02:29N 43°24' E 004°57'0 0.1
2018-Jul-12 01:56N 43°24' E 004°57'0 0.0
2018-Jul-12 01:29N 43°24' E 004°57'0 0.0
2018-Jul-12 00:59N 43°24' E 004°57'0 0.0
2018-Jul-12 00:29N 43°24' E 004°57'0 0.0
2018-Jul-11 23:59N 43°24' E 004°57'0 0.0
2018-Jul-11 23:26N 43°24' E 004°57'0 0.0
2018-Jul-11 22:59N 43°24' E 004°57'0 0.0
2018-Jul-11 22:29N 43°24' E 004°57'0 0.0
2018-Jul-11 21:59N 43°24' E 004°57'0 0.0
2018-Jul-11 21:29N 43°24' E 004°57'0 0.0
2018-Jul-11 20:59N 43°24' E 004°57'0 0.0
2018-Jul-11 20:29N 43°24' E 004°57'0 0.0
2018-Jul-11 19:59N 43°24' E 004°57'0 0.0
2018-Jul-11 19:29N 43°24' E 004°57'0 0.0
2018-Jul-11 18:59N 43°24' E 004°57'0 0.0
2018-Jul-11 18:29N 43°24' E 004°57'0 0.0
2018-Jul-11 17:59N 43°24' E 004°57'0 0.0
2018-Jul-11 17:20N 43°24' E 004°57'0 0.2
2018-Jul-11 16:59N 43°24' E 004°57'0 0.0
2018-Jul-11 16:29N 43°24' E 004°57'0 0.1
2018-Jul-11 15:59N 43°24' E 004°57'0 0.1
2018-Jul-11 15:29N 43°24' E 004°57'0 0.0
2018-Jul-11 14:53N 43°24' E 004°57'0 0.1
2018-Jul-11 14:29N 43°24' E 004°57'0 0.0
2018-Jul-11 13:59N 43°24' E 004°57'0 0.0
2018-Jul-11 13:26N 43°24' E 004°57'0 0.1
2018-Jul-11 13:00N 43°24' E 004°57'0 0.0
2018-Jul-11 12:24N 43°24' E 004°57'0 0.0
2018-Jul-11 12:00N 43°24' E 004°57'0 0.0
2018-Jul-11 11:30N 43°24' E 004°57'0 0.1
2018-Jul-11 11:00N 43°24' E 004°57'0 0.0
2018-Jul-11 10:30N 43°24' E 004°57'0 0.0
2018-Jul-11 10:00N 43°24' E 004°57'2708.2
2018-Jul-11 10:00N 43°24' E 004°54'2 4.0 350 / 271012.1 5.4 24.520.720.4
2018-Jul-11 09:30N 43°24' E 004°57'0 0.0
2018-Jul-11 09:00N 43°24' E 004°57'0 0.0
2018-Jul-11 08:30N 43°24' E 004°57'0 0.0
2018-Jul-11 08:00N 43°24' E 004°57'0 0.0
2018-Jul-11 07:30N 43°24' E 004°57'0 0.0
2018-Jul-11 07:00N 43°24' E 004°57'0 0.0
2018-Jul-11 06:30N 43°24' E 004°57'0 0.0
2018-Jul-11 06:00N 43°24' E 004°57'0 0.0
2018-Jul-11 05:30N 43°24' E 004°57'0 0.0
2018-Jul-11 05:00N 43°24' E 004°57'0 0.0
2018-Jul-11 04:30N 43°24' E 004°57'0 0.0
2018-Jul-11 04:00N 43°24' E 004°57'0 0.0
2018-Jul-11 03:30N 43°24' E 004°57'0 0.0
2018-Jul-11 03:00N 43°24' E 004°57'0 0.0
2018-Jul-11 02:30N 43°24' E 004°57'0 0.1
2018-Jul-11 02:00N 43°24' E 004°57'0 0.0
2018-Jul-11 01:30N 43°24' E 004°57'0 0.0
2018-Jul-11 01:00N 43°24' E 004°57'0 0.0
2018-Jul-11 00:30N 43°24' E 004°57'0 0.0
2018-Jul-11 00:00N 43°24' E 004°57'0 0.0
2018-Jul-10 23:30N 43°24' E 004°57'0 0.0
2018-Jul-10 23:00N 43°24' E 004°57'0 0.0
2018-Jul-10 22:30N 43°24' E 004°57'2 3.8
2018-Jul-10 22:00N 43°24' E 004°54'239.8 360 / 181011.9 5.4 26.510.620.3
2018-Jul-10 21:57N 43°24' E 004°57'0 0.0
2018-Jul-10 21:30N 43°24' E 004°57'0 0.0
2018-Jul-10 21:00N 43°24' E 004°57'0 0.0
2018-Jul-10 20:24N 43°24' E 004°57'0 0.0
2018-Jul-10 20:00N 43°24' E 004°57'0 0.0
2018-Jul-10 19:30N 43°24' E 004°57'0 0.0
2018-Jul-10 18:54N 43°24' E 004°57'0 0.0
2018-Jul-10 18:30N 43°24' E 004°57'0 0.1
2018-Jul-10 18:00N 43°24' E 004°57'62410.1
2018-Jul-10 18:00N 43°18' E 004°54'612.2 310 / 111012.7 5.4 29.016.225.0
2018-Jul-10 17:30N 43°24' E 004°57'0 0.0
2018-Jul-10 17:00N 43°24' E 004°57'0 0.0
2018-Jul-10 16:30N 43°24' E 004°57'0 0.0
2018-Jul-10 16:00N 43°24' E 004°57'0 0.0
2018-Jul-10 15:30N 43°24' E 004°57'0 0.0
2018-Jul-10 15:00N 43°24' E 004°57'0 0.0
2018-Jul-10 14:30N 43°24' E 004°57'0 0.2
2018-Jul-10 14:00N 43°24' E 004°57'0 0.1
2018-Jul-10 13:30N 43°24' E 004°57'0 0.1
2018-Jul-10 12:57N 43°24' E 004°57'0 0.0
2018-Jul-10 12:30N 43°24' E 004°57'0 0.0
2018-Jul-10 12:00N 43°24' E 004°57'0 0.0
2018-Jul-10 11:30N 43°24' E 004°57'0 0.0
2018-Jul-10 10:58N 43°24' E 004°57'0 0.0
2018-Jul-10 10:30N 43°24' E 004°57'0 0.0
2018-Jul-10 10:00N 43°24' E 004°57'0 0.1
2018-Jul-10 09:29N 43°24' E 004°57'0 0.4
2018-Jul-10 09:00N 43°24' E 004°57'0 0.2
2018-Jul-10 08:30N 43°24' E 004°57'0 0.0
2018-Jul-10 08:00N 43°24' E 004°57'0 0.0
2018-Jul-10 07:26N 43°24' E 004°57'0 0.0
2018-Jul-10 07:00N 43°24' E 004°57'0 0.0
2018-Jul-10 06:26N 43°24' E 004°57'0 0.0
2018-Jul-10 06:00N 43°24' E 004°57'0 0.0
2018-Jul-10 05:30N 43°24' E 004°57'0 0.1
2018-Jul-10 05:00N 43°24' E 004°57'0 0.0
2018-Jul-10 04:30N 43°24' E 004°57'0 0.0
2018-Jul-10 04:00N 43°24' E 004°57'0 0.0
2018-Jul-10 03:26N 43°24' E 004°57'0 0.0
2018-Jul-10 03:00N 43°24' E 004°57'0 0.0
2018-Jul-10 02:30N 43°24' E 004°57'0 0.0
2018-Jul-10 02:00N 43°24' E 004°57'0 0.0
2018-Jul-10 01:30N 43°24' E 004°57'0 0.0
2018-Jul-10 01:00N 43°24' E 004°57'0 0.0
2018-Jul-10 00:30N 43°24' E 004°57'0 0.0
2018-Jul-10 00:00N 43°24' E 004°57'0 0.0
2018-Jul-09 23:30N 43°24' E 004°57'0 0.1
2018-Jul-09 23:00N 43°24' E 004°57'0 0.0
2018-Jul-09 22:30N 43°24' E 004°57'0 0.0
2018-Jul-09 22:00N 43°24' E 004°57'0 0.0
2018-Jul-09 21:26N 43°24' E 004°57'0 0.0
2018-Jul-09 21:00N 43°24' E 004°57'0 0.0
2018-Jul-09 20:30N 43°24' E 004°57'0 0.0
2018-Jul-09 20:00N 43°24' E 004°57'0 0.1
2018-Jul-09 19:30N 43°24' E 004°57'0 0.0
2018-Jul-09 19:00N 43°24' E 004°57'0 0.0
2018-Jul-09 18:30N 43°24' E 004°57'0 0.0
2018-Jul-09 18:00N 43°24' E 004°57'0 0.0
2018-Jul-09 17:29N 43°24' E 004°57'1 1.7
2018-Jul-09 17:00N 43°23' E 004°57'4 7.1
2018-Jul-09 16:30N 43°20' E 004°59'5 9.7
2018-Jul-09 16:00N 43°15' E 005°01'4 8.6
2018-Jul-09 15:30N 43°11' E 005°03'4412.7
2018-Jul-09 12:03N 42°33' E 004°32'2113.9
2018-Jul-09 10:34N 42°16' E 004°17'113.6
2018-Jul-09 10:29N 42°15' E 004°16'2039.1
2018-Jul-09 10:00N 42°00' E 004°00'5211.7 360 / 251016.910.8 24.017.624.3
2018-Jul-09 05:36N 41°17' E 003°23'114.9
2018-Jul-09 05:30N 41°16' E 003°22'814.6
2018-Jul-09 04:59N 41°09' E 003°16'1014.5
2018-Jul-09 04:18N 41°01' E 003°09'723.6
2018-Jul-09 04:00N 40°54' E 003°06'311.2 310 / 111018.610.8 25.621.726.0
2018-Jul-09 03:46N 40°55' E 003°03'414.7
2018-Jul-09 03:30N 40°51' E 002°60'814.6
2018-Jul-09 02:55N 40°44' E 002°54'614.6
2018-Jul-09 02:30N 40°39' E 002°49'1514.8
2018-Jul-09 01:31N 40°29' E 002°36'115.0
2018-Jul-09 01:26N 40°28' E 002°35'1015.1
2018-Jul-09 00:48N 40°21' E 002°26'2815.2
2018-Jul-08 22:56N 39°60' E 002°02'1015.0
2018-Jul-08 22:16N 39°52' E 001°52'37138.5
2018-Jul-08 22:00N 39°42' E 001°06'31166.2 350 / 71017.910.8 25.522.628.6
2018-Jul-08 21:48N 39°47' E 001°46'415.1
2018-Jul-08 21:30N 39°44' E 001°42'815.0
2018-Jul-08 21:00N 39°39' E 001°35'1015.0
2018-Jul-08 20:20N 39°31' E 001°27'6115.2
2018-Jul-08 16:21N 38°47' E 000°34'615.1
2018-Jul-08 15:57N 38°42' E 000°28'715.1
2018-Jul-08 15:30N 38°37' E 000°24'714.8
2018-Jul-08 15:00N 38°31' E 000°18'714.6
2018-Jul-08 14:30N 38°25' E 000°13'714.4
2018-Jul-08 14:00N 38°19' E 000°08'1414.5
2018-Jul-08 13:01N 38°07' W 000°02'114.3
2018-Jul-08 12:59N 38°06' W 000°03'714.4
2018-Jul-08 12:30N 38°01' W 000°08'1914.3
2018-Jul-08 11:11N 37°45' W 000°21'314.3
2018-Jul-08 10:59N 37°43' W 000°23'714.2
2018-Jul-08 10:29N 37°36' W 000°27'714.0
2018-Jul-08 10:00N 37°31' W 000°33'714.0
2018-Jul-08 09:29N 37°26' W 000°40'713.9
2018-Jul-08 09:00N 37°21' W 000°45'713.9
2018-Jul-08 08:30N 37°16' W 000°51'813.9
2018-Jul-08 07:58N 37°10' W 000°57'813.9
2018-Jul-08 07:23N 37°04' W 001°04'514.0
2018-Jul-08 07:00N 37°00' W 001°08'13313.2
2018-Jul-07 21:00N 36°12' W 003°42'6716.7 360 / 101016.810.8 21.520.015.2
2018-Jul-07 17:01N 36°06' W 005°04'214.6
2018-Jul-07 16:55N 36°06' W 005°06'613.8
2018-Jul-07 16:30N 36°05' W 005°13'5 9.3
2018-Jul-07 16:00N 36°04' W 005°19'4 7.0
2018-Jul-07 15:30N 36°06' W 005°22'1 1.3
2018-Jul-07 14:58N 36°07' W 005°22'0 0.0
2018-Jul-07 14:25N 36°07' W 005°22'0 0.0
2018-Jul-07 13:59N 36°07' W 005°22'0 0.0
2018-Jul-07 13:25N 36°07' W 005°22'0 0.0
2018-Jul-07 12:59N 36°07' W 005°22'0 0.0
2018-Jul-07 12:22N 36°07' W 005°22'0 0.0
2018-Jul-07 11:58N 36°07' W 005°22'0 0.1
2018-Jul-07 11:28N 36°07' W 005°22'0 0.0
2018-Jul-07 10:55N 36°07' W 005°22'0 0.0
2018-Jul-07 10:28N 36°07' W 005°22'0 0.1
2018-Jul-07 09:58N 36°07' W 005°22'0 0.1
2018-Jul-07 09:25N 36°07' W 005°22'0 0.2
2018-Jul-07 08:59N 36°07' W 005°22'0 0.1
2018-Jul-07 08:30N 36°07' W 005°22'2 3.0
2018-Jul-07 07:59N 36°05' W 005°21'1 3.1
2018-Jul-07 07:30N 36°05' W 005°19'2 3.9
2018-Jul-07 06:59N 36°05' W 005°17'1 2.7
2018-Jul-07 06:30N 36°05' W 005°15'3 6.4
2018-Jul-07 06:00N 36°07' W 005°12'2 4.3
2018-Jul-07 05:30N 36°08' W 005°10'0 0.4
2018-Jul-07 04:56N 36°08' W 005°10'0 0.6
2018-Jul-07 04:30N 36°08' W 005°10'1 1.1
2018-Jul-07 04:00N 36°07' W 005°09'0 0.9
2018-Jul-07 03:30N 36°07' W 005°09'0 0.4
2018-Jul-07 03:00N 36°07' W 005°09'1 1.6
2018-Jul-07 02:30N 36°06' W 005°09'5 9.1
2018-Jul-07 02:00N 36°02' W 005°12'713.2
2018-Jul-07 01:31N 35°60' W 005°20'714.7
2018-Jul-07 01:01N 35°58' W 005°28'  

Dump ship's entire track history